Time;durP1;ratioP1;P1;durP2;ratioP2;P2;SDS_P1;SDS_P2;PMS_P1;PMS_P2;Temp;Humidity;BMP_temperature;BMP_pressure;BME280_temperature;BME280_humidity;BME280_pressure;Samples;Min_cycle;Max_cycle;Signal;HPM_P1;HPM_P2
2022/10/24 00:00:15;;;;;;;;;;;;;;;;;;7368183;19;800;-58
2022/10/24 00:02:43;;;;;;;;;;;;;;;;;;7368884;19;886;-58
2022/10/24 00:05:11;;;;;;;;;;;;;;;;;;7368812;19;784;-59
2022/10/24 00:07:39;;;;;;;;;;;;;;;;;;7368833;19;1946;-58
2022/10/24 00:10:07;;;;;;;;;;;;;;;;;;7366902;19;1867;-58
2022/10/24 00:12:35;;;;;;;;;;;;;;;;;;7369510;19;818;-60
2022/10/24 00:15:03;;;;;;;;;;;;;;;;;;7368976;19;815;-60
2022/10/24 00:17:32;;;;;;;;;;;;;;;;;;7367506;19;1227;-59
2022/10/24 00:20:00;;;;;;;;;;;;;;;;;;7367945;19;763;-56
2022/10/24 00:22:28;;;;;;;;;;;;;;;;;;7368648;19;851;-54
2022/10/24 00:24:56;;;;;;;;;;;;;;;;;;7368645;19;791;-54
2022/10/24 00:27:24;;;;;;;;;;;;;;;;;;7365915;19;1283;-53
2022/10/24 00:29:52;;;;;;;;;;;;;;;;;;7365567;19;1861;-55
2022/10/24 00:32:20;;;;;;;;;;;;;;;;;;7367717;19;783;-57
2022/10/24 00:34:48;;;;;;;;;;;;;;;;;;7367796;19;804;-58
2022/10/24 00:37:17;;;;;;;;;;;;;;;;;;7367098;19;1350;-58
2022/10/24 00:39:45;;;;;;;;;;;;;;;;;;7365654;19;881;-60
2022/10/24 00:42:13;;;;;;;;;;;;;;;;;;7366987;19;802;-57
2022/10/24 00:44:41;;;;;;;;;;;;;;;;;;7369516;19;1821;-60
2022/10/24 00:47:09;;;;;;;;;;;;;;;;;;7367346;19;1264;-53
2022/10/24 00:49:37;;;;;;;;;;;;;;;;;;7365680;19;1841;-64
2022/10/24 00:52:05;;;;;;;;;;;;;;;;;;7367599;19;796;-57
2022/10/24 00:54:33;;;;;;;;;;;;;;;;;;7367876;19;749;-59
2022/10/24 00:57:02;;;;;;;;;;;;;;;;;;7367550;19;1332;-56
2022/10/24 00:59:30;;;;;;;;;;;;;;;;;;7366364;19;814;-59
2022/10/24 01:01:58;;;;;;;;;;;;;;;;;;7367302;19;819;-58
2022/10/24 01:04:26;;;;;;;;;;;;;;;;;;7367715;19;800;-58
2022/10/24 01:06:54;;;;;;;;;;;;;;;;;;7367254;19;1290;-58
2022/10/24 01:09:22;;;;;;;;;;;;;;;;;;7365219;19;1847;-60
2022/10/24 01:11:50;;;;;;;;;;;;;;;;;;7367041;19;842;-59
2022/10/24 01:14:18;;;;;;;;;;;;;;;;;;7365061;19;796;-56
2022/10/24 01:16:46;;;;;;;;;;;;;;;;;;7366821;19;1318;-58
2022/10/24 01:19:15;;;;;;;;;;;;;;;;;;7364155;19;875;-59
2022/10/24 01:21:43;;;;;;;;;;;;;;;;;;7367040;19;794;-55
2022/10/24 01:24:11;;;;;;;;;;;;;;;;;;7367004;19;847;-55
2022/10/24 01:26:40;;;;;;;;;;;;;;;;;;7366301;19;1291;-60
2022/10/24 01:29:08;;;;;;;;;;;;;;;;;;7364716;19;1842;-57
2022/10/24 01:31:36;;;;;;;;;;;;;;;;;;7365270;19;866;-60
2022/10/24 01:34:04;;;;;;;;;;;;;;;;;;7366488;19;796;-60
2022/10/24 01:36:32;;;;;;;;;;;;;;;;;;7366347;19;801;-61
2022/10/24 01:39:01;;;;;;;;;;;;;;;;;;7361996;19;1252;-54
2022/10/24 01:41:29;;;;;;;;;;;;;;;;;;7365996;19;919;-59
2022/10/24 01:43:57;;;;;;;;;;;;;;;;;;7366364;19;1606;-58
2022/10/24 01:46:25;;;;;;;;;;;;;;;;;;7366022;19;827;-59
2022/10/24 01:48:53;;;;;;;;;;;;;;;;;;7363036;19;1857;-60
2022/10/24 01:51:21;;;;;;;;;;;;;;;;;;7365774;19;860;-60
2022/10/24 01:53:49;;;;;;;;;;;;;;;;;;7366140;19;850;-58
2022/10/24 01:56:18;;;;;;;;;;;;;;;;;;7364189;19;1065;-60
2022/10/24 01:58:46;;;;;;;;;;;;;;;;;;7363045;19;1287;-60
2022/10/24 02:01:14;;;;;;;;;;;;;;;;;;7366442;19;830;-60
2022/10/24 02:03:42;;;;;;;;;;;;;;;;;;7365569;19;782;-61
2022/10/24 02:06:10;;;;;;;;;;;;;;;;;;7364990;19;802;-55
2022/10/24 02:08:38;;;;;;;;;;;;;;;;;;7362167;19;1847;-54
2022/10/24 02:11:06;;;;;;;;;;;;;;;;;;7365389;19;886;-58
2022/10/24 02:13:35;;;;;;;;;;;;;;;;;;7364938;19;840;-56
2022/10/24 02:16:03;;;;;;;;;;;;;;;;;;7365356;19;834;-56
2022/10/24 02:18:31;;;;;;;;;;;;;;;;;;7361174;19;1297;-57
2022/10/24 02:20:59;;;;;;;;;;;;;;;;;;7364690;19;982;-58
2022/10/24 02:23:27;;;;;;;;;;;;;;;;;;7364795;19;786;-60
2022/10/24 02:25:55;;;;;;;;;;;;;;;;;;7365259;19;867;-60
2022/10/24 02:28:23;;;;;;;;;;;;;;;;;;7361819;19;1338;-61
2022/10/24 02:30:51;;;;;;;;;;;;;;;;;;7361867;19;1809;-60
2022/10/24 02:33:19;;;;;;;;;;;;;;;;;;7364153;19;974;-59
2022/10/24 02:35:48;;;;;;;;;;;;;;;;;;7364636;19;858;-59
2022/10/24 02:38:16;;;;;;;;;;;;;;;;;;7363427;19;1285;-58
2022/10/24 02:40:44;;;;;;;;;;;;;;;;;;7371955;19;771;-56
2022/10/24 02:43:12;;;;;;;;;;;;;;;;;;7369989;19;787;-58
2022/10/24 02:45:40;;;;;;;;;;;;;;;;;;7374988;19;1628;-59
2022/10/24 02:48:08;;;;;;;;;;;;;;;;;;7369857;19;1283;-54
2022/10/24 02:50:36;;;;;;;;;;;;;;;;;;7368676;19;1857;-59
2022/10/24 02:53:04;;;;;;;;;;;;;;;;;;7364910;19;823;-58
2022/10/24 02:55:32;;;;;;;;;;;;;;;;;;7363886;19;858;-61
2022/10/24 02:58:01;;;;;;;;;;;;;;;;;;7361294;19;1772;-59
2022/10/24 03:00:29;;;;;;;;;;;;;;;;;;7363176;19;757;-57
2022/10/24 03:02:57;;;;;;;;;;;;;;;;;;7363859;19;812;-59
2022/10/24 03:05:25;;;;;;;;;;;;;;;;;;7363608;19;810;-59
2022/10/24 03:07:53;;;;;;;;;;;;;;;;;;7361600;19;1656;-61
2022/10/24 03:10:21;;;;;;;;;;;;;;;;;;7361328;19;1846;-61
2022/10/24 03:12:49;;;;;;;;;;;;;;;;;;7363789;19;851;-61
2022/10/24 03:15:17;;;;;;;;;;;;;;;;;;7363995;19;745;-58
2022/10/24 03:17:47;;;;;;;;;;;;;;;;;;7361744;19;1263;-61
2022/10/24 03:20:16;;;;;;;;;;;;;;;;;;7363165;19;807;-60
2022/10/24 03:22:44;;;;;;;;;;;;;;;;;;7363606;19;858;-60
2022/10/24 03:25:12;;;;;;;;;;;;;;;;;;7362295;19;796;-59
2022/10/24 03:27:40;;;;;;;;;;;;;;;;;;7360673;19;1310;-53
2022/10/24 03:30:08;;;;;;;;;;;;;;;;;;7360916;19;1843;-60
2022/10/24 03:32:36;;;;;;;;;;;;;;;;;;7362259;19;803;-59
2022/10/24 03:35:04;;;;;;;;;;;;;;;;;;7361787;19;807;-59
2022/10/24 03:37:32;;;;;;;;;;;;;;;;;;7364327;19;1266;-59
2022/10/24 03:40:00;;;;;;;;;;;;;;;;;;7368535;19;870;-59
2022/10/24 03:42:29;;;;;;;;;;;;;;;;;;7368457;19;721;-57
2022/10/24 03:44:57;;;;;;;;;;;;;;;;;;7371449;19;1568;-59
2022/10/24 03:47:25;;;;;;;;;;;;;;;;;;7368006;19;1283;-60
2022/10/24 03:49:53;;;;;;;;;;;;;;;;;;7367204;19;1879;-60
2022/10/24 03:52:21;;;;;;;;;;;;;;;;;;7368409;19;760;-59
2022/10/24 03:54:49;;;;;;;;;;;;;;;;;;7367659;19;854;-57
2022/10/24 03:57:17;;;;;;;;;;;;;;;;;;7367990;19;1377;-58
2022/10/24 03:59:46;;;;;;;;;;;;;;;;;;7367753;19;834;-57
2022/10/24 04:02:14;;;;;;;;;;;;;;;;;;7368798;19;755;-58
2022/10/24 04:04:42;;;;;;;;;;;;;;;;;;7368324;19;835;-59
2022/10/24 04:07:10;;;;;;;;;;;;;;;;;;7367526;19;1296;-54
2022/10/24 04:09:38;;;;;;;;;;;;;;;;;;7366850;19;1845;-56
2022/10/24 04:12:07;;;;;;;;;;;;;;;;;;7368674;19;926;-54
2022/10/24 04:14:35;;;;;;;;;;;;;;;;;;7368187;19;818;-60
2022/10/24 04:17:03;;;;;;;;;;;;;;;;;;7367523;19;1297;-57
2022/10/24 04:19:31;;;;;;;;;;;;;;;;;;7367459;19;894;-59
2022/10/24 04:21:59;;;;;;;;;;;;;;;;;;7368215;19;850;-57
2022/10/24 04:24:27;;;;;;;;;;;;;;;;;;7367665;19;788;-58
2022/10/24 04:26:55;;;;;;;;;;;;;;;;;;7367409;19;1278;-56
2022/10/24 04:29:23;;;;;;;;;;;;;;;;;;7367405;19;1852;-57
2022/10/24 04:31:51;;;;;;;;;;;;;;;;;;7367630;19;796;-59
2022/10/24 04:34:20;;;;;;;;;;;;;;;;;;7367581;19;861;-59
2022/10/24 04:36:48;;;;;;;;;;;;;;;;;;7367724;19;1321;-58
2022/10/24 04:39:16;;;;;;;;;;;;;;;;;;7366844;19;831;-58
2022/10/24 04:41:44;;;;;;;;;;;;;;;;;;7368159;19;894;-60
2022/10/24 04:44:12;;;;;;;;;;;;;;;;;;7368645;19;1604;-60
2022/10/24 04:46:40;;;;;;;;;;;;;;;;;;7367031;19;1275;-56
2022/10/24 04:49:08;;;;;;;;;;;;;;;;;;7364161;19;890;-57
2022/10/24 04:51:37;;;;;;;;;;;;;;;;;;7364258;19;1897;-60
2022/10/24 04:54:05;;;;;;;;;;;;;;;;;;7367315;19;866;-58
2022/10/24 04:56:33;;;;;;;;;;;;;;;;;;7366821;19;815;-59
2022/10/24 04:59:01;;;;;;;;;;;;;;;;;;7363130;19;1248;-58
2022/10/24 05:01:29;;;;;;;;;;;;;;;;;;7367128;19;855;-59
2022/10/24 05:03:57;;;;;;;;;;;;;;;;;;7367675;19;860;-61
2022/10/24 05:06:25;;;;;;;;;;;;;;;;;;7366797;19;824;-57
2022/10/24 05:08:53;;;;;;;;;;;;;;;;;;7363705;19;1274;-57
2022/10/24 05:11:22;;;;;;;;;;;;;;;;;;7364359;19;1837;-58
2022/10/24 05:13:50;;;;;;;;;;;;;;;;;;7366886;19;807;-64
2022/10/24 05:16:18;;;;;;;;;;;;;;;;;;7366186;19;893;-58
2022/10/24 05:18:46;;;;;;;;;;;;;;;;;;7363043;19;1204;-60
2022/10/24 05:21:14;;;;;;;;;;;;;;;;;;7366718;19;868;-59
2022/10/24 05:23:42;;;;;;;;;;;;;;;;;;7366742;19;813;-56
2022/10/24 05:26:10;;;;;;;;;;;;;;;;;;7365579;19;805;-59
2022/10/24 05:28:38;;;;;;;;;;;;;;;;;;7362607;19;1270;-57
2022/10/24 05:31:07;;;;;;;;;;;;;;;;;;7364251;19;1849;-59
2022/10/24 05:33:35;;;;;;;;;;;;;;;;;;7366233;19;862;-60
2022/10/24 05:36:03;;;;;;;;;;;;;;;;;;7365649;19;811;-60
2022/10/24 05:38:31;;;;;;;;;;;;;;;;;;7362038;19;1278;-60
2022/10/24 05:40:59;;;;;;;;;;;;;;;;;;7365375;19;872;-54
2022/10/24 05:43:27;;;;;;;;;;;;;;;;;;7364394;19;810;-59
2022/10/24 05:45:55;;;;;;;;;;;;;;;;;;7369538;19;1622;-56
2022/10/24 05:48:23;;;;;;;;;;;;;;;;;;7362236;19;1290;-60
2022/10/24 05:50:51;;;;;;;;;;;;;;;;;;7363836;19;1853;-56
2022/10/24 05:53:20;;;;;;;;;;;;;;;;;;7365099;19;874;-60
2022/10/24 05:55:48;;;;;;;;;;;;;;;;;;7365961;19;784;-60
2022/10/24 05:58:19;;;;;;;;;;;;;;;;;;7362701;19;1279;-59
2022/10/24 06:00:47;;;;;;;;;;;;;;;;;;7364348;19;775;-54
2022/10/24 06:03:16;;;;;;;;;;;;;;;;;;7364993;19;850;-59
2022/10/24 06:05:44;;;;;;;;;;;;;;;;;;7365152;19;866;-60
2022/10/24 06:08:12;;;;;;;;;;;;;;;;;;7363223;19;1309;-59
2022/10/24 06:10:40;;;;;;;;;;;;;;;;;;7363706;19;1854;-60
2022/10/24 06:13:08;;;;;;;;;;;;;;;;;;7365298;19;812;-58
2022/10/24 06:15:36;;;;;;;;;;;;;;;;;;7365906;19;802;-58
2022/10/24 06:18:04;;;;;;;;;;;;;;;;;;7361806;19;1362;-59
2022/10/24 06:20:32;;;;;;;;;;;;;;;;;;7365406;19;858;-56
2022/10/24 06:23:01;;;;;;;;;;;;;;;;;;7365421;19;838;-57
2022/10/24 06:25:29;;;;;;;;;;;;;;;;;;7364831;19;828;-59
2022/10/24 06:27:57;;;;;;;;;;;;;;;;;;7362577;19;1276;-58
2022/10/24 06:30:25;;;;;;;;;;;;;;;;;;7364667;19;1834;-58
2022/10/24 06:32:53;;;;;;;;;;;;;;;;;;7364962;19;830;-56
2022/10/24 06:35:21;;;;;;;;;;;;;;;;;;7364201;19;799;-59
2022/10/24 06:37:49;;;;;;;;;;;;;;;;;;7362349;19;1279;-60
2022/10/24 06:40:17;;;;;;;;;;;;;;;;;;7364365;19;856;-60
2022/10/24 06:42:46;;;;;;;;;;;;;;;;;;7364451;19;810;-59
2022/10/24 06:45:14;;;;;;;;;;;;;;;;;;7365640;19;826;-59
2022/10/24 06:47:42;;;;;;;;;;;;;;;;;;7363248;19;1281;-56
2022/10/24 06:50:10;;;;;;;;;;;;;;;;;;7364185;19;1833;-58
2022/10/24 06:52:38;;;;;;;;;;;;;;;;;;7364838;19;822;-57
2022/10/24 06:55:06;;;;;;;;;;;;;;;;;;7365402;19;812;-60
2022/10/24 06:57:34;;;;;;;;;;;;;;;;;;7362669;19;1267;-59
2022/10/24 07:00:02;;;;;;;;;;;;;;;;;;7364249;19;881;-61
2022/10/24 07:02:31;;;;;;;;;;;;;;;;;;7365292;19;799;-60
2022/10/24 07:04:59;;;;;;;;;;;;;;;;;;7364633;19;838;-58
2022/10/24 07:07:27;;;;;;;;;;;;;;;;;;7362883;19;1344;-58
2022/10/24 07:09:55;;;;;;;;;;;;;;;;;;7363101;19;846;-60
2022/10/24 07:12:23;;;;;;;;;;;;;;;;;;7364196;19;1849;-60
2022/10/24 07:14:51;;;;;;;;;;;;;;;;;;7371128;19;826;-60
2022/10/24 07:17:20;;;;;;;;;;;;;;;;;;7369482;19;1349;-60
2022/10/24 07:19:48;;;;;;;;;;;;;;;;;;7370048;19;826;-58
2022/10/24 07:22:16;;;;;;;;;;;;;;;;;;7370740;19;823;-60
2022/10/24 07:24:45;;;;;;;;;;;;;;;;;;7370455;19;779;-60
2022/10/24 07:27:13;;;;;;;;;;;;;;;;;;7369296;19;1230;-59
2022/10/24 07:29:41;;;;;;;;;;;;;;;;;;7369709;19;812;-56
2022/10/24 07:32:09;;;;;;;;;;;;;;;;;;7368201;19;1839;-59
2022/10/24 07:34:37;;;;;;;;;;;;;;;;;;7370013;19;879;-57
2022/10/24 07:37:05;;;;;;;;;;;;;;;;;;7369764;19;1886;-62
2022/10/24 07:39:33;;;;;;;;;;;;;;;;;;7369246;19;927;-58
2022/10/24 07:42:01;;;;;;;;;;;;;;;;;;7370304;19;786;-58
2022/10/24 07:44:30;;;;;;;;;;;;;;;;;;7371206;19;1614;-61
2022/10/24 07:46:58;;;;;;;;;;;;;;;;;;7369492;19;1283;-60
2022/10/24 07:49:26;;;;;;;;;;;;;;;;;;7368808;19;785;-58
2022/10/24 07:51:54;;;;;;;;;;;;;;;;;;7367201;19;1837;-57
2022/10/24 07:54:24;;;;;;;;;;;;;;;;;;7369095;19;823;-60
2022/10/24 07:56:52;;;;;;;;;;;;;;;;;;7369775;19;1326;-60
2022/10/24 07:59:20;;;;;;;;;;;;;;;;;;7368168;19;704;-60
2022/10/24 08:01:48;;;;;;;;;;;;;;;;;;7369113;19;810;-60
2022/10/24 08:04:17;;;;;;;;;;;;;;;;;;7368971;19;804;-62
2022/10/24 08:06:45;;;;;;;;;;;;;;;;;;7369314;19;1267;-61
2022/10/24 08:09:13;;;;;;;;;;;;;;;;;;7367379;19;864;-63
2022/10/24 08:11:41;;;;;;;;;;;;;;;;;;7367787;19;1845;-61
2022/10/24 08:14:09;;;;;;;;;;;;;;;;;;7368912;19;828;-59
2022/10/24 08:16:37;;;;;;;;;;;;;;;;;;7368858;19;876;-59
2022/10/24 08:19:05;;;;;;;;;;;;;;;;;;7365842;19;1398;-60
2022/10/24 08:21:35;;;;;;;;;;;;;;;;;;7368891;19;847;-57
2022/10/24 08:24:03;;;;;;;;;;;;;;;;;;7369364;19;721;-60
2022/10/24 08:26:31;;;;;;;;;;;;;;;;;;7368234;19;779;-59
2022/10/24 08:28:59;;;;;;;;;;;;;;;;;;7365176;19;1263;-61
2022/10/24 08:31:27;;;;;;;;;;;;;;;;;;7366992;19;1857;-62
2022/10/24 08:33:56;;;;;;;;;;;;;;;;;;7368331;19;819;-60
2022/10/24 08:36:24;;;;;;;;;;;;;;;;;;7367547;19;768;-59
2022/10/24 08:38:52;;;;;;;;;;;;;;;;;;7364503;19;1220;-60
2022/10/24 08:41:20;;;;;;;;;;;;;;;;;;7367527;19;843;-58
2022/10/24 08:43:48;;;;;;;;;;;;;;;;;;7368061;19;1838;-54
2022/10/24 08:46:16;;;;;;;;;;;;;;;;;;7368013;19;847;-60
2022/10/24 08:48:44;;;;;;;;;;;;;;;;;;7367221;19;1337;-57
2022/10/24 08:51:12;;;;;;;;;;;;;;;;;;7368077;19;1855;-61
2022/10/24 08:53:40;;;;;;;;;;;;;;;;;;7368914;19;1211;-56
2022/10/24 08:56:09;;;;;;;;;;;;;;;;;;7367898;19;798;-61
2022/10/24 08:58:37;;;;;;;;;;;;;;;;;;7364497;19;1290;-59
2022/10/24 09:01:05;;;;;;;;;;;;;;;;;;7368119;19;727;-58
2022/10/24 09:03:33;;;;;;;;;;;;;;;;;;7367653;19;875;-60
2022/10/24 09:06:01;;;;;;;;;;;;;;;;;;7367066;19;831;-59
2022/10/24 09:08:29;;;;;;;;;;;;;;;;;;7364418;19;1311;-62
2022/10/24 09:10:57;;;;;;;;;;;;;;;;;;7367213;19;1830;-61
2022/10/24 09:13:25;;;;;;;;;;;;;;;;;;7367204;19;811;-61
2022/10/24 09:15:54;;;;;;;;;;;;;;;;;;7367725;19;894;-58
2022/10/24 09:18:22;;;;;;;;;;;;;;;;;;7364103;19;1338;-61
2022/10/24 09:20:50;;;;;;;;;;;;;;;;;;7366833;19;822;-59
2022/10/24 09:23:18;;;;;;;;;;;;;;;;;;7368280;19;791;-58
2022/10/24 09:25:46;;;;;;;;;;;;;;;;;;7372292;19;835;-59
2022/10/24 09:28:14;;;;;;;;;;;;;;;;;;7372343;19;1301;-60
2022/10/24 09:30:42;;;;;;;;;;;;;;;;;;7373823;19;1841;-57
2022/10/24 09:33:11;;;;;;;;;;;;;;;;;;7375516;19;1687;-58
2022/10/24 09:35:39;;;;;;;;;;;;;;;;;;7373137;19;771;-56
2022/10/24 09:38:07;;;;;;;;;;;;;;;;;;7363435;19;1315;-54
2022/10/24 09:40:36;;;;;;;;;;;;;;;;;;7366192;19;815;-59
2022/10/24 09:43:04;;;;;;;;;;;;;;;;;;7366953;19;819;-61
2022/10/24 09:45:32;;;;;;;;;;;;;;;;;;7369326;19;1663;-61
2022/10/24 09:48:00;;;;;;;;;;;;;;;;;;7363583;19;1272;-60
2022/10/24 09:50:28;;;;;;;;;;;;;;;;;;7366301;19;856;-60
2022/10/24 09:52:56;;;;;;;;;;;;;;;;;;7363235;19;1850;-61
2022/10/24 09:55:27;;;;;;;;;;;;;;;;;;7366314;19;748;-61
2022/10/24 09:57:56;;;;;;;;;;;;;;;;;;7363946;19;1385;-59
2022/10/24 10:00:25;;;;;;;;;;;;;;;;;;7366347;19;855;-60
2022/10/24 10:02:53;;;;;;;;;;;;;;;;;;7365807;19;945;-60
2022/10/24 10:05:21;;;;;;;;;;;;;;;;;;7365657;19;907;-60
2022/10/24 10:07:49;;;;;;;;;;;;;;;;;;7363534;19;1310;-60
2022/10/24 10:10:18;;;;;;;;;;;;;;;;;;7365502;19;835;-59
2022/10/24 10:12:46;;;;;;;;;;;;;;;;;;7363424;19;1838;-57
2022/10/24 10:15:14;;;;;;;;;;;;;;;;;;7365858;19;867;-58
2022/10/24 10:17:42;;;;;;;;;;;;;;;;;;7363538;19;1247;-58
2022/10/24 10:20:10;;;;;;;;;;;;;;;;;;7365557;19;882;-59
2022/10/24 10:22:38;;;;;;;;;;;;;;;;;;7364507;19;891;-58
2022/10/24 10:25:06;;;;;;;;;;;;;;;;;;7364796;19;832;-58
2022/10/24 10:27:34;;;;;;;;;;;;;;;;;;7363097;19;1327;-56
2022/10/24 10:30:02;;;;;;;;;;;;;;;;;;7364895;19;831;-54
2022/10/24 10:32:31;;;;;;;;;;;;;;;;;;7362063;19;1853;-59
2022/10/24 10:34:59;;;;;;;;;;;;;;;;;;7364927;19;759;-60
2022/10/24 10:37:27;;;;;;;;;;;;;;;;;;7363282;19;1279;-57
2022/10/24 10:39:55;;;;;;;;;;;;;;;;;;7364186;19;901;-58
2022/10/24 10:42:23;;;;;;;;;;;;;;;;;;7364309;19;874;-60
2022/10/24 10:44:51;;;;;;;;;;;;;;;;;;7366329;19;1860;-59
2022/10/24 10:47:19;;;;;;;;;;;;;;;;;;7365582;19;1279;-59
2022/10/24 10:49:47;;;;;;;;;;;;;;;;;;7369968;19;870;-54
2022/10/24 10:52:16;;;;;;;;;;;;;;;;;;7369507;19;1845;-59
2022/10/24 10:54:44;;;;;;;;;;;;;;;;;;7371199;19;867;-60
2022/10/24 10:57:12;;;;;;;;;;;;;;;;;;7370248;19;1282;-56
2022/10/24 10:59:40;;;;;;;;;;;;;;;;;;7369736;19;772;-59
2022/10/24 11:02:08;;;;;;;;;;;;;;;;;;7373453;19;1714;-57
2022/10/24 11:04:36;;;;;;;;;;;;;;;;;;7371081;19;1004;-55
2022/10/24 11:07:04;;;;;;;;;;;;;;;;;;7370092;19;1354;-57
2022/10/24 11:09:32;;;;;;;;;;;;;;;;;;7370703;19;1196;-59
2022/10/24 11:12:01;;;;;;;;;;;;;;;;;;7370969;19;1864;-61
2022/10/24 11:14:29;;;;;;;;;;;;;;;;;;7370232;19;797;-61
2022/10/24 11:16:57;;;;;;;;;;;;;;;;;;7370170;19;1268;-60
2022/10/24 11:19:25;;;;;;;;;;;;;;;;;;7369700;19;877;-59
2022/10/24 11:21:53;;;;;;;;;;;;;;;;;;7370545;19;871;-55
2022/10/24 11:24:21;;;;;;;;;;;;;;;;;;7369597;19;790;-58
2022/10/24 11:26:49;;;;;;;;;;;;;;;;;;7369901;19;1232;-61
2022/10/24 11:29:17;;;;;;;;;;;;;;;;;;7368600;19;827;-55
2022/10/24 11:31:46;;;;;;;;;;;;;;;;;;7369042;19;1833;-57
2022/10/24 11:34:14;;;;;;;;;;;;;;;;;;7370143;19;769;-56
2022/10/24 11:36:42;;;;;;;;;;;;;;;;;;7369182;19;772;-60
2022/10/24 11:39:10;;;;;;;;;;;;;;;;;;7371332;19;1903;-60
2022/10/24 11:41:38;;;;;;;;;;;;;;;;;;7369473;19;815;-61
2022/10/24 11:44:06;;;;;;;;;;;;;;;;;;7369614;19;1647;-56
2022/10/24 11:46:34;;;;;;;;;;;;;;;;;;7368888;19;1563;-58
2022/10/24 11:49:10;;;;;;;;;;;;;;;;;;7368577;19;1600;-57
2022/10/24 11:51:39;;;;;;;;;;;;;;;;;;7371324;19;1861;-58
2022/10/24 11:54:07;;;;;;;;;;;;;;;;;;7370046;19;839;-59
2022/10/24 11:56:35;;;;;;;;;;;;;;;;;;7368863;19;819;-60
2022/10/24 11:59:04;;;;;;;;;;;;;;;;;;7366728;19;1228;-58
2022/10/24 12:01:32;;;;;;;;;;;;;;;;;;7369262;19;693;-55
2022/10/24 12:04:00;;;;;;;;;;;;;;;;;;7368358;19;770;-59
2022/10/24 12:06:28;;;;;;;;;;;;;;;;;;7369269;19;786;-58
2022/10/24 12:08:56;;;;;;;;;;;;;;;;;;7367670;19;1806;-56
2022/10/24 12:11:24;;;;;;;;;;;;;;;;;;7369814;19;815;-59
2022/10/24 12:13:52;;;;;;;;;;;;;;;;;;7366077;19;1838;-59
2022/10/24 12:16:20;;;;;;;;;;;;;;;;;;7366888;19;803;-55
2022/10/24 12:18:49;;;;;;;;;;;;;;;;;;7366053;19;1686;-54
2022/10/24 12:21:17;;;;;;;;;;;;;;;;;;7368375;19;862;-60
2022/10/24 12:23:45;;;;;;;;;;;;;;;;;;7370238;19;806;-59
2022/10/24 12:26:13;;;;;;;;;;;;;;;;;;7370122;19;816;-59
2022/10/24 12:28:42;;;;;;;;;;;;;;;;;;7365487;19;1248;-56
2022/10/24 12:31:10;;;;;;;;;;;;;;;;;;7367599;19;862;-54
2022/10/24 12:33:38;;;;;;;;;;;;;;;;;;7365770;19;1857;-60
2022/10/24 12:36:10;;;;;;;;;;;;;;;;;;7368849;19;803;-60
2022/10/24 12:38:38;;;;;;;;;;;;;;;;;;7362977;19;1406;-59
2022/10/24 12:41:08;;;;;;;;;;;;;;;;;;7368263;19;798;-60
2022/10/24 12:43:36;;;;;;;;;;;;;;;;;;7367636;19;1050;-58
2022/10/24 12:46:04;;;;;;;;;;;;;;;;;;7372021;19;1683;-57
2022/10/24 12:48:32;;;;;;;;;;;;;;;;;;7364834;19;1330;-58
2022/10/24 12:51:00;;;;;;;;;;;;;;;;;;7367671;19;734;-56
2022/10/24 12:53:29;;;;;;;;;;;;;;;;;;7365366;19;1822;-60
2022/10/24 12:55:57;;;;;;;;;;;;;;;;;;7367733;19;812;-58
2022/10/24 12:58:25;;;;;;;;;;;;;;;;;;7364440;19;1337;-58
2022/10/24 13:00:53;;;;;;;;;;;;;;;;;;7367643;19;843;-60
2022/10/24 13:03:21;;;;;;;;;;;;;;;;;;7366866;19;788;-58
2022/10/24 13:05:49;;;;;;;;;;;;;;;;;;7367092;19;847;-58
2022/10/24 13:08:17;;;;;;;;;;;;;;;;;;7364213;19;1275;-58
2022/10/24 13:10:46;;;;;;;;;;;;;;;;;;7364301;19;823;-60
2022/10/24 13:13:14;;;;;;;;;;;;;;;;;;7365623;19;1843;-54
2022/10/24 13:15:42;;;;;;;;;;;;;;;;;;7366815;19;763;-60
2022/10/24 13:18:10;;;;;;;;;;;;;;;;;;7364451;19;1314;-59
2022/10/24 13:20:38;;;;;;;;;;;;;;;;;;7367178;19;854;-57
2022/10/24 13:23:06;;;;;;;;;;;;;;;;;;7366555;19;871;-59
2022/10/24 13:25:35;;;;;;;;;;;;;;;;;;7366974;19;812;-55
2022/10/24 13:28:03;;;;;;;;;;;;;;;;;;7364597;19;1260;-54
2022/10/24 13:30:31;;;;;;;;;;;;;;;;;;7367105;19;832;-62
2022/10/24 13:32:59;;;;;;;;;;;;;;;;;;7365760;19;1845;-57
2022/10/24 13:35:27;;;;;;;;;;;;;;;;;;7368364;19;1784;-58
2022/10/24 13:37:56;;;;;;;;;;;;;;;;;;7366326;19;1842;-55
2022/10/24 13:40:24;;;;;;;;;;;;;;;;;;7369750;19;1553;-58
2022/10/24 13:42:52;;;;;;;;;;;;;;;;;;7366500;19;842;-57
2022/10/24 13:45:20;;;;;;;;;;;;;;;;;;7366359;19;815;-60
2022/10/24 13:47:48;;;;;;;;;;;;;;;;;;7364119;19;1348;-57
2022/10/24 13:50:16;;;;;;;;;;;;;;;;;;7366207;19;808;-59
2022/10/24 13:52:45;;;;;;;;;;;;;;;;;;7365945;19;1830;-56
2022/10/24 13:55:13;;;;;;;;;;;;;;;;;;7366549;19;1144;-63
2022/10/24 13:57:41;;;;;;;;;;;;;;;;;;7364325;19;1286;-60
2022/10/24 14:00:10;;;;;;;;;;;;;;;;;;7365701;19;822;-60
2022/10/24 14:02:38;;;;;;;;;;;;;;;;;;7365741;19;1885;-59
2022/10/24 14:05:06;;;;;;;;;;;;;;;;;;7365450;19;807;-57
2022/10/24 14:07:35;;;;;;;;;;;;;;;;;;7363972;19;1291;-54
2022/10/24 14:10:03;;;;;;;;;;;;;;;;;;7365538;19;919;-61
2022/10/24 14:12:31;;;;;;;;;;;;;;;;;;7365247;19;1846;-56
2022/10/24 14:15:01;;;;;;;;;;;;;;;;;;7366091;19;806;-55
2022/10/24 14:17:29;;;;;;;;;;;;;;;;;;7367143;19;2044;-61
2022/10/24 14:19:57;;;;;;;;;;;;;;;;;;7365669;19;733;-58
2022/10/24 14:22:26;;;;;;;;;;;;;;;;;;7364527;19;823;-56
2022/10/24 14:24:54;;;;;;;;;;;;;;;;;;7365827;19;736;-54
2022/10/24 14:27:23;;;;;;;;;;;;;;;;;;7364827;19;1267;-60
2022/10/24 14:29:51;;;;;;;;;;;;;;;;;;7364210;19;1772;-54
2022/10/24 14:32:19;;;;;;;;;;;;;;;;;;7364700;19;1845;-60
2022/10/24 14:34:47;;;;;;;;;;;;;;;;;;7364820;19;820;-59
2022/10/24 14:37:15;;;;;;;;;;;;;;;;;;7367419;19;2050;-59
2022/10/24 14:39:43;;;;;;;;;;;;;;;;;;7364315;19;811;-57
2022/10/24 14:42:11;;;;;;;;;;;;;;;;;;7364884;19;1080;-57
2022/10/24 14:44:40;;;;;;;;;;;;;;;;;;7365608;19;1659;-59
2022/10/24 14:47:08;;;;;;;;;;;;;;;;;;7364051;19;1303;-54
2022/10/24 14:49:36;;;;;;;;;;;;;;;;;;7361878;19;928;-58
2022/10/24 14:52:04;;;;;;;;;;;;;;;;;;7368136;19;1832;-60
2022/10/24 14:54:32;;;;;;;;;;;;;;;;;;7361398;19;1834;-59
2022/10/24 14:57:00;;;;;;;;;;;;;;;;;;7363956;19;1395;-61
2022/10/24 14:59:28;;;;;;;;;;;;;;;;;;7367276;19;1798;-56
2022/10/24 15:01:57;;;;;;;;;;;;;;;;;;7364051;19;852;-57
2022/10/24 15:04:25;;;;;;;;;;;;;;;;;;7363847;19;812;-60
2022/10/24 15:06:53;;;;;;;;;;;;;;;;;;7363302;19;1271;-58
2022/10/24 15:09:21;;;;;;;;;;;;;;;;;;7365990;19;861;-58
2022/10/24 15:11:49;;;;;;;;;;;;;;;;;;7367203;19;842;-59
2022/10/24 15:14:17;;;;;;;;;;;;;;;;;;7367186;19;1857;-61
2022/10/24 15:16:48;;;;;;;;;;;;;;;;;;7372141;19;1435;-61
2022/10/24 15:19:16;;;;;;;;;;;;;;;;;;7364734;19;788;-55
2022/10/24 15:21:45;;;;;;;;;;;;;;;;;;7362759;19;863;-57
2022/10/24 15:24:13;;;;;;;;;;;;;;;;;;7362710;19;803;-58
2022/10/24 15:26:43;;;;;;;;;;;;;;;;;;7366612;19;1768;-58
2022/10/24 15:29:11;;;;;;;;;;;;;;;;;;7361625;19;702;-60
2022/10/24 15:31:39;;;;;;;;;;;;;;;;;;7362514;19;789;-58
2022/10/24 15:34:09;;;;;;;;;;;;;;;;;;7365415;19;1849;-59
2022/10/24 15:36:37;;;;;;;;;;;;;;;;;;7369027;19;1038;-58
2022/10/24 15:39:05;;;;;;;;;;;;;;;;;;7366014;19;1299;-59
2022/10/24 15:41:33;;;;;;;;;;;;;;;;;;7369023;19;858;-55
2022/10/24 15:44:01;;;;;;;;;;;;;;;;;;7369529;19;837;-55
2022/10/24 15:46:29;;;;;;;;;;;;;;;;;;7369208;19;827;-57
2022/10/24 15:48:57;;;;;;;;;;;;;;;;;;7365253;19;1389;-57
2022/10/24 15:51:25;;;;;;;;;;;;;;;;;;7369008;19;861;-55
2022/10/24 15:53:55;;;;;;;;;;;;;;;;;;7370483;19;1846;-59
2022/10/24 15:56:23;;;;;;;;;;;;;;;;;;7370011;19;929;-59
2022/10/24 15:58:54;;;;;;;;;;;;;;;;;;7368698;19;2578;-57
2022/10/24 16:01:22;;;;;;;;;;;;;;;;;;7368082;19;834;-59
2022/10/24 16:03:50;;;;;;;;;;;;;;;;;;7369038;19;865;-57
2022/10/24 16:06:19;;;;;;;;;;;;;;;;;;7369056;19;711;-56
2022/10/24 16:08:47;;;;;;;;;;;;;;;;;;7367912;19;1267;-56
2022/10/24 16:11:15;;;;;;;;;;;;;;;;;;7370032;19;926;-59
2022/10/24 16:13:44;;;;;;;;;;;;;;;;;;7368982;19;1830;-58
2022/10/24 16:16:12;;;;;;;;;;;;;;;;;;7370562;19;830;-58
2022/10/24 16:18:40;;;;;;;;;;;;;;;;;;7369033;19;1334;-59
2022/10/24 16:21:08;;;;;;;;;;;;;;;;;;7370678;19;1763;-59
2022/10/24 16:23:36;;;;;;;;;;;;;;;;;;7372256;19;952;-58
2022/10/24 16:26:04;;;;;;;;;;;;;;;;;;7367656;19;826;-58
2022/10/24 16:28:32;;;;;;;;;;;;;;;;;;7364652;19;1953;-57
2022/10/24 16:31:00;;;;;;;;;;;;;;;;;;7372509;19;1780;-59
2022/10/24 16:33:29;;;;;;;;;;;;;;;;;;7366997;19;1849;-59
2022/10/24 16:35:57;;;;;;;;;;;;;;;;;;7367924;19;850;-60
2022/10/24 16:38:25;;;;;;;;;;;;;;;;;;7364806;19;1260;-57
2022/10/24 16:40:53;;;;;;;;;;;;;;;;;;7366687;19;784;-60
2022/10/24 16:43:21;;;;;;;;;;;;;;;;;;7367441;19;868;-59
2022/10/24 16:45:49;;;;;;;;;;;;;;;;;;7370496;19;1796;-57
2022/10/24 16:48:17;;;;;;;;;;;;;;;;;;7364509;19;1271;-54
2022/10/24 16:50:46;;;;;;;;;;;;;;;;;;7367587;19;830;-57
2022/10/24 16:53:17;;;;;;;;;;;;;;;;;;7366931;19;1826;-56
2022/10/24 16:55:45;;;;;;;;;;;;;;;;;;7368017;19;819;-57
2022/10/24 16:58:13;;;;;;;;;;;;;;;;;;7365719;19;1263;-56
2022/10/24 17:00:41;;;;;;;;;;;;;;;;;;7367371;19;794;-56
2022/10/24 17:03:09;;;;;;;;;;;;;;;;;;7366659;19;812;-54
2022/10/24 17:05:37;;;;;;;;;;;;;;;;;;7366779;19;826;-58
2022/10/24 17:08:05;;;;;;;;;;;;;;;;;;7363893;19;1334;-54
2022/10/24 17:10:33;;;;;;;;;;;;;;;;;;7366995;19;834;-54
2022/10/24 17:13:02;;;;;;;;;;;;;;;;;;7367526;19;2205;-54
2022/10/24 17:15:30;;;;;;;;;;;;;;;;;;7367167;19;930;-59
2022/10/24 17:17:58;;;;;;;;;;;;;;;;;;7368634;19;2026;-59